Latest Weather Observations for Hervey Bay

IDQ60801

Issued at 7:02 pm EST Saturday 23 July 2016 (issued every 30 minutes, with the page automatically refreshed every 10 minutes)

About weather observations | Map of weather stations | Latest weather observations for QLD | Other Formats
Station Details ID: 040405 Name: HERVEY BAY AIRPORT Lat: -25.32 Lon: 152.88 Height: 12.98 m
Data from the previous 72 hours. | See also: Recent months at Hervey Bay
Date/Time
EST
Temp
°C
App
Temp
°C
Dew
Point
°C
Rel
Hum
%
Delta-T
°C
Wind Press
QNH
hPa
Press
MSL
hPa
Rain since
9am
mm
Dir  Spd
km/h
Gust
km/h
Spd
kts
Gust
kts
23/07:00pm 20.6 19.3 18.2 86 1.5 NNW 22 30 12 16 1011.3 1011.2 0.0
23/06:30pm 20.6 19.4 18.4 87 1.4 NNW 22 32 12 17 1011.0 1010.9 0.0
23/06:00pm 20.7 19.1 18.3 86 1.5 NNW 24 32 13 17 1010.7 1010.6 0.0
23/05:30pm 20.8 19.1 18.2 85 1.6 NNW 24 33 13 18 1010.5 1010.4 0.0
23/05:00pm 21.2 19.5 18.2 83 1.9 NNW 24 35 13 19 1010.3 1010.2 0.0
23/04:30pm 21.6 19.9 18.2 81 2.1 NNW 24 30 13 16 1010.2 1010.1 0.0
23/04:00pm 22.0 20.0 18.2 79 2.4 NNW 26 37 14 20 1010.1 1010.0 0.0
23/03:30pm 22.6 21.0 18.4 77 2.6 NNW 24 35 13 19 1010.0 1009.9 0.0
23/03:00pm 22.7 20.7 18.3 76 2.8 NNW 26 37 14 20 1010.1 1010.0 0.0
23/02:30pm 22.9 20.9 18.2 75 2.9 NNW 26 37 14 20 1010.0 1009.9 0.0
23/02:00pm 23.4 21.7 18.1 72 3.3 NNW 24 35 13 19 1010.1 1010.0 0.0
23/01:30pm 23.1 21.0 18.0 73 3.2 NNW 26 35 14 19 1010.5 1010.4 0.0
23/01:00pm 23.7 22.4 18.1 71 3.5 NNW 22 32 12 17 1010.7 1010.6 0.0
23/12:30pm 23.5 21.7 17.9 71 3.5 NNW 24 33 13 18 1011.1 1011.0 0.0
23/12:00pm 23.0 20.7 17.5 71 3.4 NNW 26 35 14 19 1011.5 1011.4 0.0
23/11:30am 23.7 22.8 18.1 71 3.5 NNW 20 30 11 16 1012.0 1011.9 0.0
23/11:00am 22.3 20.9 17.9 76 2.7 NNW 22 30 12 16 1012.5 1012.4 0.0
23/10:30am 21.8 20.7 17.8 78 2.5 NNW 20 30 11 16 1013.0 1012.9 0.0
23/10:00am 21.4 20.4 17.6 79 2.3 NNW 19 28 10 15 1013.4 1013.3 0.0
23/09:30am 21.1 20.3 17.9 82 2.0 NNW 19 28 10 15 1013.7 1013.6 0.0
23/09:00am 20.9 20.1 18.1 84 1.7 NNW 19 28 10 15 1013.8 1013.7 0.0
23/08:30am 20.4 20.1 18.2 87 1.4 NNW 17 26 9 14 1013.7 1013.6 0.0
23/08:00am 20.0 20.0 18.0 88 1.2 NNW 15 20 8 11 1013.6 1013.5 0.0
23/07:30am 19.6 19.5 17.9 90 1.0 NNW 15 20 8 11 1013.7 1013.6 0.0
23/07:00am 19.4 18.9 17.7 90 1.0 NNW 17 22 9 12 1013.4 1013.3 0.0
23/06:30am 19.3 19.5 17.6 90 1.0 NNW 13 19 7 10 1013.1 1013.0 0.0
23/06:00am 19.4 18.9 17.9 91 0.9 NNW 17 22 9 12 1012.9 1012.8 0.0
23/05:30am 19.3 19.3 18.0 92 0.8 NNW 15 22 8 12 1012.7 1012.6 0.0
23/05:00am 19.3 19.3 18.1 93 0.7 NNW 15 20 8 11 1012.6 1012.5 0.0
23/04:30am 19.2 19.5 18.0 93 0.7 NNW 13 17 7 9 1012.5 1012.4 0.0
23/04:00am 19.3 18.9 18.1 93 0.7 NNW 17 26 9 14 1012.4 1012.3 0.0
23/03:30am 19.4 19.4 18.2 93 0.7 NNW 15 24 8 13 1012.3 1012.2 0.0
23/03:00am 19.4 19.1 18.2 93 0.7 NNW 17 20 9 11 1012.4 1012.3 0.0
23/02:30am 19.5 20.0 18.3 93 0.7 NNW 13 19 7 10 1012.5 1012.4 0.0
23/02:00am 19.3 20.1 18.1 93 0.7 N 11 15 6 8 1012.6 1012.5 0.0
23/01:30am 19.3 19.7 18.1 93 0.7 N 13 17 7 9 1012.8 1012.7 0.0
23/01:00am 19.3 20.0 18.0 92 0.8 NNW 11 17 6 9 1013.2 1013.1 0.0
23/12:30am 19.5 20.2 18.0 91 0.9 NNW 11 15 6 8 1013.4 1013.3 0.0
23/12:00am 19.5 19.8 17.8 90 1.0 NNW 13 20 7 11 1013.4 1013.3 0.0
 
Date/Time
EST
Temp
°C
App
Temp
°C
Dew
Point
°C
Rel
Hum
%
Delta-T
°C
Wind Press
QNH
hPa
Press
MSL
hPa
Rain since
9am
mm
Dir  Spd
km/h
Gust
km/h
Spd
kts
Gust
kts
22/11:30pm 19.4 19.6 17.7 90 1.0 NNW 13 17 7 9 1013.5 1013.4 0.0
22/11:00pm 19.5 19.3 17.6 89 1.2 NNW 15 20 8 11 1013.6 1013.5 0.0
22/10:30pm 19.6 19.8 17.7 89 1.2 NNW 13 20 7 11 1013.8 1013.7 0.0
22/10:00pm 19.7 19.9 17.7 88 1.2 NNW 13 19 7 10 1014.0 1013.9 0.0
22/09:30pm 19.9 20.2 17.9 88 1.2 N 13 20 7 11 1014.2 1014.1 0.0
22/09:00pm 19.8 20.0 17.6 87 1.3 NNW 13 20 7 11 1014.3 1014.2 0.0
22/08:30pm 20.0 19.8 17.6 86 1.5 NNW 15 22 8 12 1014.2 1014.1 0.0
22/08:00pm 20.3 19.4 17.7 85 1.6 NNW 19 24 10 13 1014.2 1014.1 0.0
22/07:30pm 20.2 19.7 17.8 86 1.5 N 17 24 9 13 1014.2 1014.1 0.0
22/07:00pm 20.1 19.6 17.9 87 1.4 N 17 24 9 13 1014.0 1013.9 0.0
22/06:30pm 20.1 20.4 17.9 87 1.4 N 13 20 7 11 1013.8 1013.7 0.0
22/06:00pm 20.1 20.5 18.1 88 1.2 N 13 20 7 11 1013.5 1013.4 0.0
22/05:30pm 20.3 20.7 18.1 87 1.4 N 13 19 7 10 1013.5 1013.4 0.0
22/05:00pm 20.8 20.4 18.0 84 1.7 N 17 24 9 13 1013.3 1013.2 0.0
22/04:30pm 21.5 21.0 17.9 80 2.2 N 17 28 9 15 1013.2 1013.1 0.0
22/04:00pm 21.7 20.6 17.7 78 2.5 N 20 30 11 16 1013.1 1013.0 0.0
22/03:30pm 22.6 21.5 17.3 72 3.3 N 19 26 10 14 1013.1 1013.0 0.0
22/03:00pm 22.8 21.8 17.5 72 3.3 N 19 26 10 14 1013.2 1013.1 0.0
22/02:30pm 23.2 22.5 17.4 70 3.6 N 17 26 9 14 1013.4 1013.3 0.0
22/02:00pm 23.1 22.5 17.6 71 3.4 N 17 24 9 13 1013.6 1013.5 0.0
22/01:30pm 23.1 21.7 17.1 69 3.7 N 20 30 11 16 1013.7 1013.6 0.0
22/01:00pm 23.1 21.7 16.9 68 3.8 N 20 28 11 15 1014.1 1014.0 0.0
22/12:30pm 23.1 22.1 16.6 67 4.0 N 17 24 9 13 1014.6 1014.5 0.0
22/12:00pm 22.8 21.2 15.9 65 4.2 N 19 24 10 13 1015.3 1015.3 0.0
22/11:30am 22.8 21.4 15.6 64 4.3 N 17 22 9 12 1016.0 1016.0 0.0
22/11:00am 22.8 20.9 15.1 62 4.6 NNW 19 26 10 14 1016.5 1016.5 0.0
22/10:30am 22.9 21.4 15.2 62 4.6 NNW 17 24 9 13 1016.9 1016.9 0.0
22/10:00am 22.4 21.4 15.5 65 4.1 NNW 15 20 8 11 1017.3 1017.3 0.0
22/09:30am 21.5 21.0 15.8 70 3.4 N 13 17 7 9 1017.5 1017.5 0.0
22/09:00am 21.2 20.8 16.2 73 3.0 N 13 17 7 9 1017.5 1017.5 0.0
22/08:30am 20.5 20.8 16.1 76 2.6 NNW 9 13 5 7 1017.2 1017.2 0.0
22/08:00am 18.9 19.8 16.1 84 1.7 NNW 6 9 3 5 1017.0 1017.0 0.0
22/07:30am 17.0 19.0 15.9 93 0.6 CALM 0 0 0 0 1016.7 1016.7 0.0
22/07:00am 14.6 15.7 13.5 93 0.6 CALM 0 0 0 0 1016.7 1016.7 0.0
22/06:30am 13.7 13.7 12.4 92 0.7 NNW 4 7 2 4 1016.4 1016.4 0.0
22/06:00am 13.8 13.4 12.5 92 0.7 N 6 6 3 3 1016.2 1016.2 0.0
22/05:30am 14.1 13.8 12.8 92 0.7 NNE 6 7 3 4 1016.1 1016.1 0.0
22/05:00am 15.0 16.2 13.9 93 0.6 CALM 0 0 0 0 1016.1 1016.1 0.0
22/04:30am 14.9 16.1 13.8 93 0.6 CALM 0 0 0 0 1016.3 1016.3 0.0
22/04:00am 14.7 15.8 13.4 92 0.7 CALM 0 0 0 0 1016.4 1016.4 0.0
22/03:30am 14.4 15.4 13.1 92 0.7 CALM 0 0 0 0 1016.5 1016.5 0.0
22/03:00am 14.5 15.4 13.0 91 0.8 CALM 0 0 0 0 1016.7 1016.7 0.0
22/02:40am 14.8 15.8 13.3 91 0.8 CALM 0 0 0 0 1016.8 1016.8 0.0
22/02:30am 14.8 15.8 13.3 91 0.8 CALM 0 0 0 0 1016.9 1016.9 0.0
22/02:22am 14.9 16.0 13.4 91 0.8 CALM 0 0 0 0 1016.9 1016.9 0.0
22/02:00am 15.1 16.2 13.5 90 0.9 CALM 0 0 0 0 1016.9 1016.9 0.0
22/01:30am 15.5 16.7 13.9 90 0.9 CALM 0 0 0 0 1017.0 1017.0 0.0
22/01:00am 15.8 17.1 14.0 89 1.0 CALM 0 0 0 0 1017.2 1017.2 0.0
22/12:30am 16.6 17.7 14.6 88 1.1 NNW 2 6 1 3 1017.3 1017.3 0.0
22/12:00am 18.8 20.0 17.3 91 0.9 NNW 7 11 4 6 1017.3 1017.3 0.0
 
Date/Time
EST
Temp
°C
App
Temp
°C
Dew
Point
°C
Rel
Hum
%
Delta-T
°C
Wind Press
QNH
hPa
Press
MSL
hPa
Rain since
9am
mm
Dir  Spd
km/h
Gust
km/h
Spd
kts
Gust
kts
21/11:30pm 19.0 20.2 17.3 90 1.0 NNW 7 9 4 5 1017.4 1017.4 0.0
21/11:00pm 19.1 19.9 17.2 89 1.2 N 9 11 5 6 1017.4 1017.4 0.0
21/10:30pm 19.0 19.4 17.3 90 1.0 N 11 13 6 7 1017.5 1017.5 0.0
21/10:00pm 18.7 19.7 16.9 89 1.1 N 7 11 4 6 1017.7 1017.7 0.0
21/09:30pm 19.2 20.2 16.8 86 1.4 N 7 9 4 5 1017.8 1017.8 0.0
21/09:00pm 19.6 20.2 16.8 84 1.7 N 9 13 5 7 1017.7 1017.7 0.0
21/08:30pm 19.7 19.8 16.5 82 1.9 N 11 15 6 8 1017.5 1017.5 0.0
21/08:00pm 19.6 19.4 16.6 83 1.8 N 13 15 7 8 1017.3 1017.3 0.0
21/07:30pm 19.7 20.3 16.7 83 1.8 N 9 13 5 7 1017.2 1017.2 0.0
21/07:00pm 19.9 20.0 16.5 81 2.0 N 11 13 6 7 1017.1 1017.1 0.0
21/06:30pm 19.7 19.8 16.5 82 1.9 N 11 13 6 7 1016.9 1016.9 0.0
21/06:00pm 20.1 20.6 16.5 80 2.2 N 9 13 5 7 1016.7 1016.7 0.0
21/05:30pm 20.5 19.9 15.7 74 2.9 N 13 17 7 9 1016.5 1016.5 0.0
21/05:00pm 21.2 20.6 15.7 71 3.3 N 13 19 7 10 1016.4 1016.4 0.0
21/04:30pm 22.0 21.0 15.6 67 3.8 N 15 22 8 12 1016.4 1016.4 0.0
21/04:00pm 22.4 20.9 15.3 64 4.2 N 17 24 9 13 1016.4 1016.4 0.0
21/03:30pm 22.8 21.2 15.1 62 4.6 N 17 24 9 13 1016.1 1016.1 0.0
21/03:00pm 23.5 22.0 15.3 60 4.9 N 17 22 9 12 1016.3 1016.3 0.0
21/02:30pm 23.5 21.7 15.5 60 4.8 NNW 19 24 10 13 1016.5 1016.5 0.0
21/02:00pm 22.6 21.1 15.4 64 4.3 N 17 24 9 13 1016.7 1016.7 0.0
21/01:30pm 23.6 21.6 15.4 60 4.9 NNW 20 28 11 15 1017.1 1017.1 0.0
21/01:00pm 23.4 21.9 16.2 64 4.4 NNW 19 26 10 14 1017.4 1017.4 0.0
21/12:30pm 23.8 21.9 15.8 61 4.8 NNW 20 26 11 14 1017.9 1017.9 0.0
21/12:00pm 23.6 22.0 15.9 62 4.7 NNW 19 24 10 13 1018.2 1018.2 0.0
21/11:30am 23.3 22.0 15.9 63 4.5 NNW 17 24 9 13 1018.7 1018.7 0.0
21/11:00am 22.9 22.2 16.4 67 3.9 NNW 15 20 8 11 1019.2 1019.2 0.0
21/10:30am 22.8 22.3 16.8 69 3.7 NNW 15 20 8 11 1019.5 1019.5 0.0
21/10:00am 22.4 22.3 16.9 71 3.4 NW 13 19 7 10 1019.6 1019.6 0.0
21/09:30am 21.5 22.3 17.3 77 2.6 NNW 9 15 5 8 1019.8 1019.8 0.0
21/09:00am 19.8 22.3 17.2 85 1.6 CALM 0 0 0 0 1020.0 1020.0 0.2
21/08:47am 19.3 21.8 17.3 88 1.2 CALM 0 0 0 0 1019.9 1019.9 0.2
21/08:30am 18.2 20.6 16.9 92 0.8 CALM 0 0 0 0 1019.9 1019.9 0.2
21/08:00am 16.6 18.4 15.6 94 0.6 CALM 0 0 0 0 1019.7 1019.7 0.2
21/07:30am 14.8 15.6 13.8 94 0.6 SSW 2 6 1 3 1019.7 1019.7 0.2
21/07:00am 13.3 14.1 12.4 94 0.5 CALM 0 0 0 0 1019.5 1019.5 0.2
21/06:52am 12.9 13.5 12.0 94 0.5 CALM 0 0 0 0 1019.5 1019.5 0.2
21/06:30am 12.6 13.1 11.7 94 0.5 CALM 0 0 0 0 1019.3 1019.3 0.2
21/06:20am 12.6 13.1 11.7 94 0.5 CALM 0 0 0 0 1019.3 1019.3 0.2
21/06:00am 12.8 13.4 11.9 94 0.5 CALM 0 0 0 0 1019.0 1019.0 0.2
21/05:30am 12.7 13.2 11.6 93 0.6 CALM 0 0 0 0 1018.9 1018.9 0.2
21/05:00am 13.0 13.7 12.1 94 0.5 CALM 0 0 0 0 1018.7 1018.7 0.2
21/04:30am 13.0 12.5 11.9 93 0.6 SSW 6 7 3 4 1018.6 1018.6 0.2
21/04:00am 13.1 12.6 12.0 93 0.6 SSW 6 7 3 4 1018.7 1018.7 0.2
21/03:58am 13.2 12.7 12.1 93 0.6 SSW 6 7 3 4 1018.7 1018.7 0.2
21/03:48am 13.1 12.6 12.0 93 0.6 SSW 6 7 3 4 1018.8 1018.8 0.2
21/03:35am 13.1 12.6 12.0 93 0.6 SSW 6 7 3 4 1019.1 1019.1 0.2
21/03:30am 13.1 12.6 12.0 93 0.6 SSW 6 7 3 4 1019.0 1019.0 0.2
21/03:00am 13.3 14.0 12.2 93 0.6 CALM 0 0 0 0 1019.1 1019.1 0.2
21/02:30am 13.3 13.9 12.0 92 0.7 CALM 0 0 0 0 1019.2 1019.2 0.2
21/02:00am 13.8 14.6 12.5 92 0.7 CALM 0 0 0 0 1019.6 1019.6 0.2
21/01:30am 13.9 14.7 12.6 92 0.7 CALM 0 0 0 0 1019.8 1019.8 0.2
21/01:00am 14.1 14.9 12.7 91 0.8 CALM 0 0 0 0 1020.0 1020.0 0.2
21/12:30am 14.5 15.4 13.0 91 0.8 CALM 0 0 0 0 1020.3 1020.3 0.2
21/12:00am 14.7 15.3 13.1 90 0.9 NNE 2 6 1 3 1020.4 1020.4 0.2
 
Date/Time
EST
Temp
°C
App
Temp
°C
Dew
Point
°C
Rel
Hum
%
Delta-T
°C
Wind Press
QNH
hPa
Press
MSL
hPa
Rain since
9am
mm
Dir  Spd
km/h
Gust
km/h
Spd
kts
Gust
kts
20/11:30pm 15.5 16.7 13.9 90 0.9 CALM 0 0 0 0 1020.4 1020.4 0.2
20/11:00pm 17.1 17.6 15.6 91 0.9 NNE 7 9 4 5 1020.3 1020.3 0.2
20/10:30pm 16.7 17.3 15.2 91 0.9 NE 6 11 3 6 1020.5 1020.5 0.2
20/10:00pm 16.5 18.0 14.7 89 1.0 CALM 0 0 0 0 1021.0 1021.0 0.2
20/09:30pm 17.1 18.8 15.3 89 1.0 CALM 0 0 0 0 1021.3 1021.3 0.2
20/09:00pm 17.5 18.2 15.7 89 1.1 NE 6 9 3 5 1021.2 1021.2 0.2
20/08:30pm 17.6 19.4 15.6 88 1.2 CALM 0 0 0 0 1020.9 1020.9 0.2
20/08:00pm 18.4 19.1 15.6 84 1.6 N 6 7 3 4 1020.7 1020.7 0.2
20/07:30pm 19.9 20.5 15.7 77 2.5 N 7 9 4 5 1020.5 1020.5 0.2

Other Formats:

Comma delimited format used in spreadsheet applications
http://www.bom.gov.au/fwo/IDQ60801/IDQ60801.95565.axf

JavaScript Object Notation format (JSON) in row-major order
http://www.bom.gov.au/fwo/IDQ60801/IDQ60801.95565.json